sensor_id;sensor_type;location;lat;lon;timestamp;P1;durP1;ratioP1;P2;durP2;ratioP2
61741;SDS011;47650;49.848;9.620;2023-10-13T00:01:53;58.28;;;31.67;;
61741;SDS011;47650;49.848;9.620;2023-10-13T00:04:20;49.60;;;29.73;;
61741;SDS011;47650;49.848;9.620;2023-10-13T00:06:49;57.30;;;31.23;;
61741;SDS011;47650;49.848;9.620;2023-10-13T00:09:16;58.75;;;30.90;;
61741;SDS011;47650;49.848;9.620;2023-10-13T00:11:42;49.92;;;30.80;;
61741;SDS011;47650;49.848;9.620;2023-10-13T00:14:10;51.22;;;31.13;;
61741;SDS011;47650;49.848;9.620;2023-10-13T00:16:36;49.72;;;30.05;;
61741;SDS011;47650;49.848;9.620;2023-10-13T00:19:04;58.40;;;30.23;;
61741;SDS011;47650;49.848;9.620;2023-10-13T00:21:30;55.40;;;31.17;;
61741;SDS011;47650;49.848;9.620;2023-10-13T00:23:57;38.55;;;25.00;;
61741;SDS011;47650;49.848;9.620;2023-10-13T00:26:26;49.95;;;28.75;;
61741;SDS011;47650;49.848;9.620;2023-10-13T00:28:53;73.07;;;35.88;;
61741;SDS011;47650;49.848;9.620;2023-10-13T00:31:38;54.70;;;28.27;;
61741;SDS011;47650;49.848;9.620;2023-10-13T00:34:07;30.30;;;19.75;;
61741;SDS011;47650;49.848;9.620;2023-10-13T00:36:50;39.58;;;23.83;;
61741;SDS011;47650;49.848;9.620;2023-10-13T00:39:35;49.33;;;28.15;;
61741;SDS011;47650;49.848;9.620;2023-10-13T00:42:05;30.65;;;21.02;;
61741;SDS011;47650;49.848;9.620;2023-10-13T00:44:42;33.72;;;21.60;;
61741;SDS011;47650;49.848;9.620;2023-10-13T00:47:10;43.17;;;24.88;;
61741;SDS011;47650;49.848;9.620;2023-10-13T00:49:41;43.05;;;25.02;;
61741;SDS011;47650;49.848;9.620;2023-10-13T00:52:12;44.97;;;24.10;;
61741;SDS011;47650;49.848;9.620;2023-10-13T00:54:40;31.23;;;22.40;;
61741;SDS011;47650;49.848;9.620;2023-10-13T00:57:11;35.80;;;22.83;;
61741;SDS011;47650;49.848;9.620;2023-10-13T00:59:51;29.95;;;18.42;;
61741;SDS011;47650;49.848;9.620;2023-10-13T01:02:19;31.85;;;21.23;;
61741;SDS011;47650;49.848;9.620;2023-10-13T01:05:03;45.80;;;25.30;;
61741;SDS011;47650;49.848;9.620;2023-10-13T01:07:37;51.22;;;25.27;;
61741;SDS011;47650;49.848;9.620;2023-10-13T01:10:04;34.28;;;20.75;;
61741;SDS011;47650;49.848;9.620;2023-10-13T01:12:30;34.90;;;21.65;;
61741;SDS011;47650;49.848;9.620;2023-10-13T01:14:58;28.65;;;18.25;;
61741;SDS011;47650;49.848;9.620;2023-10-13T01:17:35;23.20;;;15.45;;
61741;SDS011;47650;49.848;9.620;2023-10-13T01:20:01;30.63;;;16.60;;
61741;SDS011;47650;49.848;9.620;2023-10-13T01:22:30;30.70;;;17.77;;
61741;SDS011;47650;49.848;9.620;2023-10-13T01:24:56;30.70;;;17.92;;
61741;SDS011;47650;49.848;9.620;2023-10-13T01:27:42;44.00;;;24.30;;
61741;SDS011;47650;49.848;9.620;2023-10-13T01:30:13;40.35;;;22.52;;
61741;SDS011;47650;49.848;9.620;2023-10-13T01:32:38;35.75;;;22.10;;
61741;SDS011;47650;49.848;9.620;2023-10-13T01:35:10;66.55;;;27.70;;
61741;SDS011;47650;49.848;9.620;2023-10-13T01:37:35;34.00;;;22.02;;
61741;SDS011;47650;49.848;9.620;2023-10-13T01:40:01;44.40;;;25.92;;
61741;SDS011;47650;49.848;9.620;2023-10-13T01:42:26;43.90;;;24.30;;
61741;SDS011;47650;49.848;9.620;2023-10-13T01:44:53;49.35;;;27.25;;
61741;SDS011;47650;49.848;9.620;2023-10-13T01:47:30;38.28;;;23.30;;
61741;SDS011;47650;49.848;9.620;2023-10-13T01:49:57;37.88;;;21.27;;
61741;SDS011;47650;49.848;9.620;2023-10-13T01:52:23;47.45;;;24.92;;
61741;SDS011;47650;49.848;9.620;2023-10-13T01:54:52;29.17;;;19.35;;
61741;SDS011;47650;49.848;9.620;2023-10-13T01:57:19;49.47;;;23.83;;
61741;SDS011;47650;49.848;9.620;2023-10-13T01:59:49;37.45;;;20.85;;
61741;SDS011;47650;49.848;9.620;2023-10-13T02:02:15;46.45;;;26.05;;
61741;SDS011;47650;49.848;9.620;2023-10-13T02:04:44;46.22;;;23.00;;
61741;SDS011;47650;49.848;9.620;2023-10-13T02:07:21;46.70;;;26.13;;
61741;SDS011;47650;49.848;9.620;2023-10-13T02:09:51;38.38;;;22.73;;
61741;SDS011;47650;49.848;9.620;2023-10-13T02:12:19;39.25;;;23.67;;
61741;SDS011;47650;49.848;9.620;2023-10-13T02:14:50;49.33;;;26.20;;
61741;SDS011;47650;49.848;9.620;2023-10-13T02:17:15;41.00;;;24.88;;
61741;SDS011;47650;49.848;9.620;2023-10-13T02:19:41;41.33;;;24.20;;
61741;SDS011;47650;49.848;9.620;2023-10-13T02:22:12;44.65;;;24.48;;
61741;SDS011;47650;49.848;9.620;2023-10-13T02:24:50;42.58;;;25.33;;
61741;SDS011;47650;49.848;9.620;2023-10-13T02:27:17;42.55;;;23.63;;
61741;SDS011;47650;49.848;9.620;2023-10-13T02:29:49;46.70;;;26.50;;
61741;SDS011;47650;49.848;9.620;2023-10-13T02:32:14;32.92;;;20.20;;
61741;SDS011;47650;49.848;9.620;2023-10-13T02:34:47;54.28;;;25.92;;
61741;SDS011;47650;49.848;9.620;2023-10-13T02:37:13;58.08;;;30.30;;
61741;SDS011;47650;49.848;9.620;2023-10-13T02:39:41;54.15;;;27.48;;
61741;SDS011;47650;49.848;9.620;2023-10-13T02:42:07;60.45;;;31.02;;
61741;SDS011;47650;49.848;9.620;2023-10-13T02:44:33;44.28;;;25.20;;
61741;SDS011;47650;49.848;9.620;2023-10-13T02:47:01;41.10;;;23.85;;
61741;SDS011;47650;49.848;9.620;2023-10-13T02:49:31;43.80;;;26.55;;
61741;SDS011;47650;49.848;9.620;2023-10-13T02:52:01;37.10;;;22.33;;
61741;SDS011;47650;49.848;9.620;2023-10-13T02:54:31;47.42;;;27.08;;
61741;SDS011;47650;49.848;9.620;2023-10-13T02:56:59;50.47;;;28.75;;
61741;SDS011;47650;49.848;9.620;2023-10-13T02:59:30;47.67;;;26.13;;
61741;SDS011;47650;49.848;9.620;2023-10-13T03:02:00;61.17;;;31.17;;
61741;SDS011;47650;49.848;9.620;2023-10-13T03:04:31;51.97;;;27.30;;
61741;SDS011;47650;49.848;9.620;2023-10-13T03:06:57;44.75;;;26.33;;
61741;SDS011;47650;49.848;9.620;2023-10-13T03:09:24;49.13;;;26.63;;
61741;SDS011;47650;49.848;9.620;2023-10-13T03:11:50;33.25;;;22.50;;
61741;SDS011;47650;49.848;9.620;2023-10-13T03:14:16;34.45;;;22.45;;
61741;SDS011;47650;49.848;9.620;2023-10-13T03:16:54;27.40;;;16.98;;
61741;SDS011;47650;49.848;9.620;2023-10-13T03:19:20;39.05;;;22.63;;
61741;SDS011;47650;49.848;9.620;2023-10-13T03:21:47;70.95;;;30.20;;
61741;SDS011;47650;49.848;9.620;2023-10-13T03:24:29;53.42;;;28.48;;
61741;SDS011;47650;49.848;9.620;2023-10-13T03:27:01;56.75;;;27.95;;
61741;SDS011;47650;49.848;9.620;2023-10-13T03:29:35;46.72;;;27.80;;
61741;SDS011;47650;49.848;9.620;2023-10-13T03:32:01;34.95;;;23.23;;
61741;SDS011;47650;49.848;9.620;2023-10-13T03:34:36;121.53;;;40.97;;
61741;SDS011;47650;49.848;9.620;2023-10-13T03:37:06;73.45;;;34.90;;
61741;SDS011;47650;49.848;9.620;2023-10-13T03:39:43;58.05;;;28.27;;
61741;SDS011;47650;49.848;9.620;2023-10-13T03:42:10;46.88;;;27.35;;
61741;SDS011;47650;49.848;9.620;2023-10-13T03:47:12;50.45;;;28.35;;
61741;SDS011;47650;49.848;9.620;2023-10-13T03:49:46;63.42;;;31.73;;
61741;SDS011;47650;49.848;9.620;2023-10-13T03:52:16;46.80;;;27.02;;
61741;SDS011;47650;49.848;9.620;2023-10-13T03:54:47;65.53;;;32.33;;
61741;SDS011;47650;49.848;9.620;2023-10-13T03:57:12;57.17;;;29.98;;
61741;SDS011;47650;49.848;9.620;2023-10-13T03:59:39;50.25;;;28.23;;
61741;SDS011;47650;49.848;9.620;2023-10-13T04:02:05;51.97;;;29.38;;
61741;SDS011;47650;49.848;9.620;2023-10-13T04:04:42;50.70;;;28.98;;
61741;SDS011;47650;49.848;9.620;2023-10-13T04:07:19;57.33;;;30.83;;
61741;SDS011;47650;49.848;9.620;2023-10-13T04:10:03;58.13;;;29.65;;
61741;SDS011;47650;49.848;9.620;2023-10-13T04:12:48;52.65;;;29.13;;
61741;SDS011;47650;49.848;9.620;2023-10-13T04:15:33;53.00;;;27.45;;
61741;SDS011;47650;49.848;9.620;2023-10-13T04:18:11;89.07;;;32.92;;
61741;SDS011;47650;49.848;9.620;2023-10-13T04:20:55;42.92;;;23.55;;
61741;SDS011;47650;49.848;9.620;2023-10-13T04:23:33;36.72;;;21.65;;
61741;SDS011;47650;49.848;9.620;2023-10-13T04:26:18;190.98;;;37.35;;
61741;SDS011;47650;49.848;9.620;2023-10-13T04:28:46;38.28;;;24.15;;
61741;SDS011;47650;49.848;9.620;2023-10-13T04:31:21;31.75;;;19.42;;
61741;SDS011;47650;49.848;9.620;2023-10-13T04:34:15;54.55;;;25.65;;
61741;SDS011;47650;49.848;9.620;2023-10-13T04:36:44;54.45;;;28.42;;
61741;SDS011;47650;49.848;9.620;2023-10-13T04:39:10;46.53;;;25.73;;
61741;SDS011;47650;49.848;9.620;2023-10-13T04:41:40;58.55;;;26.83;;
61741;SDS011;47650;49.848;9.620;2023-10-13T04:44:24;93.40;;;34.78;;
61741;SDS011;47650;49.848;9.620;2023-10-13T04:47:08;39.45;;;21.67;;
61741;SDS011;47650;49.848;9.620;2023-10-13T04:49:38;72.68;;;25.98;;
61741;SDS011;47650;49.848;9.620;2023-10-13T04:52:11;70.18;;;29.05;;
61741;SDS011;47650;49.848;9.620;2023-10-13T04:54:40;52.58;;;28.00;;
61741;SDS011;47650;49.848;9.620;2023-10-13T04:57:34;32.88;;;20.23;;
61741;SDS011;47650;49.848;9.620;2023-10-13T05:00:11;52.78;;;25.70;;
61741;SDS011;47650;49.848;9.620;2023-10-13T05:02:42;33.10;;;21.67;;
61741;SDS011;47650;49.848;9.620;2023-10-13T05:05:28;32.17;;;21.27;;
61741;SDS011;47650;49.848;9.620;2023-10-13T05:08:12;39.35;;;21.63;;
61741;SDS011;47650;49.848;9.620;2023-10-13T05:10:57;41.47;;;24.00;;
61741;SDS011;47650;49.848;9.620;2023-10-13T05:14:00;45.20;;;24.38;;
61741;SDS011;47650;49.848;9.620;2023-10-13T05:16:44;107.05;;;26.98;;
61741;SDS011;47650;49.848;9.620;2023-10-13T05:19:28;50.40;;;20.17;;
61741;SDS011;47650;49.848;9.620;2023-10-13T05:22:12;384.27;;;44.63;;
61741;SDS011;47650;49.848;9.620;2023-10-13T05:24:56;94.93;;;22.67;;
61741;SDS011;47650;49.848;9.620;2023-10-13T05:27:41;86.38;;;28.05;;
61741;SDS011;47650;49.848;9.620;2023-10-13T05:30:26;146.55;;;31.50;;
61741;SDS011;47650;49.848;9.620;2023-10-13T05:33:10;75.47;;;26.15;;
61741;SDS011;47650;49.848;9.620;2023-10-13T05:35:54;40.78;;;24.83;;
61741;SDS011;47650;49.848;9.620;2023-10-13T05:38:38;38.50;;;23.08;;
61741;SDS011;47650;49.848;9.620;2023-10-13T05:41:22;39.55;;;23.13;;
61741;SDS011;47650;49.848;9.620;2023-10-13T05:44:06;37.13;;;22.88;;
61741;SDS011;47650;49.848;9.620;2023-10-13T05:46:50;31.85;;;19.35;;
61741;SDS011;47650;49.848;9.620;2023-10-13T05:49:34;38.90;;;21.77;;
61741;SDS011;47650;49.848;9.620;2023-10-13T05:52:15;41.47;;;25.15;;
61741;SDS011;47650;49.848;9.620;2023-10-13T05:54:46;35.53;;;22.13;;
61741;SDS011;47650;49.848;9.620;2023-10-13T05:57:30;26.88;;;18.98;;
61741;SDS011;47650;49.848;9.620;2023-10-13T06:00:14;33.25;;;20.02;;
61741;SDS011;47650;49.848;9.620;2023-10-13T06:03:00;25.42;;;18.88;;
61741;SDS011;47650;49.848;9.620;2023-10-13T06:05:43;28.05;;;20.00;;
61741;SDS011;47650;49.848;9.620;2023-10-13T06:08:27;20.98;;;14.82;;
61741;SDS011;47650;49.848;9.620;2023-10-13T06:11:11;17.13;;;14.45;;
61741;SDS011;47650;49.848;9.620;2023-10-13T06:13:55;16.42;;;14.57;;
61741;SDS011;47650;49.848;9.620;2023-10-13T06:16:39;22.65;;;15.63;;
61741;SDS011;47650;49.848;9.620;2023-10-13T06:19:23;18.08;;;14.30;;
61741;SDS011;47650;49.848;9.620;2023-10-13T06:22:07;21.85;;;15.27;;
61741;SDS011;47650;49.848;9.620;2023-10-13T06:24:51;20.65;;;14.50;;
61741;SDS011;47650;49.848;9.620;2023-10-13T06:27:35;20.15;;;14.35;;
61741;SDS011;47650;49.848;9.620;2023-10-13T06:30:19;23.75;;;15.77;;
61741;SDS011;47650;49.848;9.620;2023-10-13T06:32:45;20.35;;;14.07;;
61741;SDS011;47650;49.848;9.620;2023-10-13T06:35:12;22.00;;;14.60;;
61741;SDS011;47650;49.848;9.620;2023-10-13T06:37:44;20.87;;;15.03;;
61741;SDS011;47650;49.848;9.620;2023-10-13T06:40:10;16.67;;;12.13;;
61741;SDS011;47650;49.848;9.620;2023-10-13T06:42:58;21.33;;;13.98;;
61741;SDS011;47650;49.848;9.620;2023-10-13T06:45:37;13.82;;;10.60;;
61741;SDS011;47650;49.848;9.620;2023-10-13T06:48:03;21.63;;;15.65;;
61741;SDS011;47650;49.848;9.620;2023-10-13T06:50:29;14.25;;;11.77;;
61741;SDS011;47650;49.848;9.620;2023-10-13T06:55:30;16.60;;;9.95;;
61741;SDS011;47650;49.848;9.620;2023-10-13T06:58:00;14.00;;;11.20;;
61741;SDS011;47650;49.848;9.620;2023-10-13T07:00:26;16.55;;;12.77;;
61741;SDS011;47650;49.848;9.620;2023-10-13T07:02:59;19.60;;;12.60;;
61741;SDS011;47650;49.848;9.620;2023-10-13T07:05:37;15.57;;;11.75;;
61741;SDS011;47650;49.848;9.620;2023-10-13T07:08:05;18.27;;;12.90;;
61741;SDS011;47650;49.848;9.620;2023-10-13T07:10:31;17.45;;;12.77;;
61741;SDS011;47650;49.848;9.620;2023-10-13T07:13:19;18.05;;;11.93;;
61741;SDS011;47650;49.848;9.620;2023-10-13T07:15:46;12.07;;;9.18;;
61741;SDS011;47650;49.848;9.620;2023-10-13T07:18:13;13.52;;;9.35;;
61741;SDS011;47650;49.848;9.620;2023-10-13T07:20:41;17.17;;;10.20;;
61741;SDS011;47650;49.848;9.620;2023-10-13T07:23:12;12.52;;;9.38;;
61741;SDS011;47650;49.848;9.620;2023-10-13T07:25:51;12.82;;;8.48;;
61741;SDS011;47650;49.848;9.620;2023-10-13T07:28:27;12.30;;;8.47;;
61741;SDS011;47650;49.848;9.620;2023-10-13T07:30:57;10.93;;;7.78;;
61741;SDS011;47650;49.848;9.620;2023-10-13T07:33:26;11.73;;;7.40;;
61741;SDS011;47650;49.848;9.620;2023-10-13T07:36:04;9.38;;;6.57;;
61741;SDS011;47650;49.848;9.620;2023-10-13T07:38:42;14.60;;;8.07;;
61741;SDS011;47650;49.848;9.620;2023-10-13T07:41:08;8.77;;;6.80;;
61741;SDS011;47650;49.848;9.620;2023-10-13T07:43:35;11.05;;;6.80;;
61741;SDS011;47650;49.848;9.620;2023-10-13T07:46:02;9.95;;;6.68;;
61741;SDS011;47650;49.848;9.620;2023-10-13T07:48:36;8.00;;;6.25;;
61741;SDS011;47650;49.848;9.620;2023-10-13T07:51:10;15.00;;;6.50;;
61741;SDS011;47650;49.848;9.620;2023-10-13T07:53:42;12.63;;;6.70;;
61741;SDS011;47650;49.848;9.620;2023-10-13T07:56:09;11.45;;;6.78;;
61741;SDS011;47650;49.848;9.620;2023-10-13T07:58:37;13.95;;;6.53;;
61741;SDS011;47650;49.848;9.620;2023-10-13T08:01:17;11.20;;;6.45;;
61741;SDS011;47650;49.848;9.620;2023-10-13T08:03:43;15.38;;;6.93;;
61741;SDS011;47650;49.848;9.620;2023-10-13T08:06:10;14.55;;;6.82;;
61741;SDS011;47650;49.848;9.620;2023-10-13T08:08:39;10.48;;;6.75;;
61741;SDS011;47650;49.848;9.620;2023-10-13T08:11:08;16.33;;;7.25;;
61741;SDS011;47650;49.848;9.620;2023-10-13T08:14:01;16.08;;;6.72;;
61741;SDS011;47650;49.848;9.620;2023-10-13T08:16:36;13.30;;;6.80;;
61741;SDS011;47650;49.848;9.620;2023-10-13T08:19:15;12.48;;;6.28;;
61741;SDS011;47650;49.848;9.620;2023-10-13T08:21:48;9.57;;;6.55;;
61741;SDS011;47650;49.848;9.620;2023-10-13T08:24:42;15.38;;;8.25;;
61741;SDS011;47650;49.848;9.620;2023-10-13T08:27:09;15.20;;;8.15;;
61741;SDS011;47650;49.848;9.620;2023-10-13T08:29:55;13.93;;;8.68;;
61741;SDS011;47650;49.848;9.620;2023-10-13T08:32:20;13.63;;;11.40;;
61741;SDS011;47650;49.848;9.620;2023-10-13T08:34:58;15.00;;;7.53;;
61741;SDS011;47650;49.848;9.620;2023-10-13T08:37:45;14.18;;;9.38;;
61741;SDS011;47650;49.848;9.620;2023-10-13T08:40:26;14.73;;;10.13;;
61741;SDS011;47650;49.848;9.620;2023-10-13T08:43:12;15.02;;;11.23;;
61741;SDS011;47650;49.848;9.620;2023-10-13T08:45:49;12.55;;;11.30;;
61741;SDS011;47650;49.848;9.620;2023-10-13T08:48:15;16.58;;;13.10;;
61741;SDS011;47650;49.848;9.620;2023-10-13T08:50:47;18.98;;;16.35;;
61741;SDS011;47650;49.848;9.620;2023-10-13T08:53:25;18.90;;;9.85;;
61741;SDS011;47650;49.848;9.620;2023-10-13T08:58:43;20.30;;;9.98;;
61741;SDS011;47650;49.848;9.620;2023-10-13T09:01:28;14.73;;;8.77;;
61741;SDS011;47650;49.848;9.620;2023-10-13T09:04:18;12.85;;;7.63;;
61741;SDS011;47650;49.848;9.620;2023-10-13T09:09:31;9.75;;;6.95;;
61741;SDS011;47650;49.848;9.620;2023-10-13T09:14:51;10.93;;;8.38;;
61741;SDS011;47650;49.848;9.620;2023-10-13T09:17:27;13.13;;;7.28;;
61741;SDS011;47650;49.848;9.620;2023-10-13T09:20:07;10.43;;;7.22;;
61741;SDS011;47650;49.848;9.620;2023-10-13T09:22:55;11.98;;;7.15;;
61741;SDS011;47650;49.848;9.620;2023-10-13T09:25:30;11.98;;;8.02;;
61741;SDS011;47650;49.848;9.620;2023-10-13T09:27:59;7.80;;;7.03;;
61741;SDS011;47650;49.848;9.620;2023-10-13T09:30:41;11.18;;;6.88;;
61741;SDS011;47650;49.848;9.620;2023-10-13T09:33:07;12.55;;;8.40;;
61741;SDS011;47650;49.848;9.620;2023-10-13T09:35:33;9.55;;;6.90;;
61741;SDS011;47650;49.848;9.620;2023-10-13T09:38:02;12.65;;;7.65;;
61741;SDS011;47650;49.848;9.620;2023-10-13T09:40:30;12.15;;;7.93;;
61741;SDS011;47650;49.848;9.620;2023-10-13T09:43:00;14.98;;;7.28;;
61741;SDS011;47650;49.848;9.620;2023-10-13T09:45:33;11.77;;;7.43;;
61741;SDS011;47650;49.848;9.620;2023-10-13T09:48:03;12.35;;;6.90;;
61741;SDS011;47650;49.848;9.620;2023-10-13T09:50:36;7.80;;;6.82;;
61741;SDS011;47650;49.848;9.620;2023-10-13T09:53:09;11.02;;;7.93;;
61741;SDS011;47650;49.848;9.620;2023-10-13T09:55:40;11.82;;;7.18;;
61741;SDS011;47650;49.848;9.620;2023-10-13T10:00:50;8.60;;;6.50;;
61741;SDS011;47650;49.848;9.620;2023-10-13T10:03:24;8.70;;;5.57;;
61741;SDS011;47650;49.848;9.620;2023-10-13T10:06:06;9.77;;;6.47;;
61741;SDS011;47650;49.848;9.620;2023-10-13T10:08:39;10.13;;;5.88;;
61741;SDS011;47650;49.848;9.620;2023-10-13T10:11:21;12.70;;;6.28;;
61741;SDS011;47650;49.848;9.620;2023-10-13T10:14:19;7.47;;;5.63;;
61741;SDS011;47650;49.848;9.620;2023-10-13T10:19:25;10.73;;;5.45;;
61741;SDS011;47650;49.848;9.620;2023-10-13T10:22:00;7.93;;;4.90;;
61741;SDS011;47650;49.848;9.620;2023-10-13T10:24:43;12.13;;;5.95;;
61741;SDS011;47650;49.848;9.620;2023-10-13T10:27:10;10.23;;;6.30;;
61741;SDS011;47650;49.848;9.620;2023-10-13T10:29:40;9.13;;;5.43;;
61741;SDS011;47650;49.848;9.620;2023-10-13T10:32:17;11.25;;;5.57;;
61741;SDS011;47650;49.848;9.620;2023-10-13T10:34:44;8.52;;;5.43;;
61741;SDS011;47650;49.848;9.620;2023-10-13T10:37:10;7.53;;;5.53;;
61741;SDS011;47650;49.848;9.620;2023-10-13T10:39:37;7.35;;;4.85;;
61741;SDS011;47650;49.848;9.620;2023-10-13T10:42:15;12.63;;;5.70;;
61741;SDS011;47650;49.848;9.620;2023-10-13T10:44:41;10.38;;;5.03;;
61741;SDS011;47650;49.848;9.620;2023-10-13T10:47:13;10.32;;;5.78;;
61741;SDS011;47650;49.848;9.620;2023-10-13T10:49:59;6.50;;;4.90;;
61741;SDS011;47650;49.848;9.620;2023-10-13T10:52:32;7.78;;;4.93;;
61741;SDS011;47650;49.848;9.620;2023-10-13T10:55:05;7.53;;;5.15;;
61741;SDS011;47650;49.848;9.620;2023-10-13T10:57:32;7.70;;;4.97;;
61741;SDS011;47650;49.848;9.620;2023-10-13T11:00:03;7.63;;;5.18;;
61741;SDS011;47650;49.848;9.620;2023-10-13T11:02:54;10.38;;;5.40;;
61741;SDS011;47650;49.848;9.620;2023-10-13T11:05:21;10.07;;;5.82;;
61741;SDS011;47650;49.848;9.620;2023-10-13T11:07:57;6.97;;;4.78;;
61741;SDS011;47650;49.848;9.620;2023-10-13T11:10:23;9.00;;;5.10;;
61741;SDS011;47650;49.848;9.620;2023-10-13T11:12:59;7.40;;;4.32;;
61741;SDS011;47650;49.848;9.620;2023-10-13T11:15:47;8.30;;;4.85;;
61741;SDS011;47650;49.848;9.620;2023-10-13T11:18:13;9.77;;;5.80;;
61741;SDS011;47650;49.848;9.620;2023-10-13T11:20:48;7.88;;;5.40;;
61741;SDS011;47650;49.848;9.620;2023-10-13T11:23:20;9.60;;;5.70;;
61741;SDS011;47650;49.848;9.620;2023-10-13T11:25:56;9.43;;;4.75;;
61741;SDS011;47650;49.848;9.620;2023-10-13T11:28:25;6.38;;;4.90;;
61741;SDS011;47650;49.848;9.620;2023-10-13T11:31:05;9.43;;;4.82;;
61741;SDS011;47650;49.848;9.620;2023-10-13T11:33:35;10.40;;;4.75;;
61741;SDS011;47650;49.848;9.620;2023-10-13T11:36:01;9.25;;;4.72;;
61741;SDS011;47650;49.848;9.620;2023-10-13T11:38:32;6.25;;;4.63;;
61741;SDS011;47650;49.848;9.620;2023-10-13T11:41:05;9.00;;;5.38;;
61741;SDS011;47650;49.848;9.620;2023-10-13T11:46:18;9.15;;;4.88;;
61741;SDS011;47650;49.848;9.620;2023-10-13T11:49:00;9.77;;;4.88;;
61741;SDS011;47650;49.848;9.620;2023-10-13T11:51:31;8.02;;;5.00;;
61741;SDS011;47650;49.848;9.620;2023-10-13T11:54:03;8.80;;;4.57;;
61741;SDS011;47650;49.848;9.620;2023-10-13T11:56:30;8.77;;;4.60;;
61741;SDS011;47650;49.848;9.620;2023-10-13T11:58:57;8.63;;;4.55;;
61741;SDS011;47650;49.848;9.620;2023-10-13T12:01:26;10.07;;;4.97;;
61741;SDS011;47650;49.848;9.620;2023-10-13T12:04:12;7.03;;;4.68;;
61741;SDS011;47650;49.848;9.620;2023-10-13T12:06:55;6.68;;;4.63;;
61741;SDS011;47650;49.848;9.620;2023-10-13T12:09:42;10.65;;;4.82;;
61741;SDS011;47650;49.848;9.620;2023-10-13T12:12:29;10.70;;;4.75;;
61741;SDS011;47650;49.848;9.620;2023-10-13T12:15:07;11.98;;;5.82;;
61741;SDS011;47650;49.848;9.620;2023-10-13T12:17:49;8.23;;;4.47;;
61741;SDS011;47650;49.848;9.620;2023-10-13T12:20:16;7.68;;;4.10;;
61741;SDS011;47650;49.848;9.620;2023-10-13T12:22:59;10.55;;;4.80;;
61741;SDS011;47650;49.848;9.620;2023-10-13T12:25:37;5.22;;;3.50;;
61741;SDS011;47650;49.848;9.620;2023-10-13T12:28:22;8.55;;;4.75;;
61741;SDS011;47650;49.848;9.620;2023-10-13T12:30:56;8.68;;;4.20;;
61741;SDS011;47650;49.848;9.620;2023-10-13T12:33:29;10.68;;;4.47;;
61741;SDS011;47650;49.848;9.620;2023-10-13T12:36:05;6.47;;;4.72;;
61741;SDS011;47650;49.848;9.620;2023-10-13T12:38:36;6.88;;;4.70;;
61741;SDS011;47650;49.848;9.620;2023-10-13T12:41:20;8.35;;;4.80;;
61741;SDS011;47650;49.848;9.620;2023-10-13T12:44:04;7.20;;;4.75;;
61741;SDS011;47650;49.848;9.620;2023-10-13T12:46:48;8.68;;;4.30;;
61741;SDS011;47650;49.848;9.620;2023-10-13T12:49:34;8.65;;;4.25;;
61741;SDS011;47650;49.848;9.620;2023-10-13T12:52:12;7.38;;;4.88;;
61741;SDS011;47650;49.848;9.620;2023-10-13T12:54:46;8.20;;;4.80;;
61741;SDS011;47650;49.848;9.620;2023-10-13T12:57:33;7.22;;;4.15;;
61741;SDS011;47650;49.848;9.620;2023-10-13T12:59:59;8.15;;;4.60;;
61741;SDS011;47650;49.848;9.620;2023-10-13T13:02:25;10.50;;;5.07;;
61741;SDS011;47650;49.848;9.620;2023-10-13T13:04:51;8.63;;;4.65;;
61741;SDS011;47650;49.848;9.620;2023-10-13T13:07:25;9.65;;;4.40;;
61741;SDS011;47650;49.848;9.620;2023-10-13T13:09:56;8.90;;;4.60;;
61741;SDS011;47650;49.848;9.620;2023-10-13T13:12:25;8.85;;;4.70;;
61741;SDS011;47650;49.848;9.620;2023-10-13T13:14:53;7.88;;;4.18;;
61741;SDS011;47650;49.848;9.620;2023-10-13T13:17:20;7.47;;;4.18;;
61741;SDS011;47650;49.848;9.620;2023-10-13T13:19:46;9.57;;;4.70;;
61741;SDS011;47650;49.848;9.620;2023-10-13T13:22:11;9.45;;;4.88;;
61741;SDS011;47650;49.848;9.620;2023-10-13T13:24:41;7.78;;;4.38;;
61741;SDS011;47650;49.848;9.620;2023-10-13T13:27:25;6.93;;;4.07;;
61741;SDS011;47650;49.848;9.620;2023-10-13T13:29:50;10.10;;;5.03;;
61741;SDS011;47650;49.848;9.620;2023-10-13T13:32:16;6.93;;;4.80;;
61741;SDS011;47650;49.848;9.620;2023-10-13T13:34:48;8.63;;;4.97;;
61741;SDS011;47650;49.848;9.620;2023-10-13T13:37:30;7.88;;;4.85;;
61741;SDS011;47650;49.848;9.620;2023-10-13T13:39:56;9.02;;;4.97;;
61741;SDS011;47650;49.848;9.620;2023-10-13T13:42:40;6.38;;;4.05;;
61741;SDS011;47650;49.848;9.620;2023-10-13T13:45:06;7.40;;;4.50;;
61741;SDS011;47650;49.848;9.620;2023-10-13T13:47:54;9.02;;;4.10;;
61741;SDS011;47650;49.848;9.620;2023-10-13T13:50:24;8.25;;;4.50;;
61741;SDS011;47650;49.848;9.620;2023-10-13T13:52:56;6.57;;;4.15;;
61741;SDS011;47650;49.848;9.620;2023-10-13T13:55:22;7.70;;;4.35;;
61741;SDS011;47650;49.848;9.620;2023-10-13T13:57:56;8.45;;;4.30;;
61741;SDS011;47650;49.848;9.620;2023-10-13T14:00:22;6.05;;;3.63;;
61741;SDS011;47650;49.848;9.620;2023-10-13T14:03:06;6.67;;;4.20;;
61741;SDS011;47650;49.848;9.620;2023-10-13T14:05:55;6.38;;;4.05;;
61741;SDS011;47650;49.848;9.620;2023-10-13T14:08:23;8.13;;;5.28;;
61741;SDS011;47650;49.848;9.620;2023-10-13T14:10:50;7.50;;;4.13;;
61741;SDS011;47650;49.848;9.620;2023-10-13T14:13:35;10.00;;;4.47;;
61741;SDS011;47650;49.848;9.620;2023-10-13T14:16:16;10.63;;;4.60;;
61741;SDS011;47650;49.848;9.620;2023-10-13T14:18:43;6.22;;;3.83;;
61741;SDS011;47650;49.848;9.620;2023-10-13T14:21:12;8.43;;;4.10;;
61741;SDS011;47650;49.848;9.620;2023-10-13T14:23:42;7.18;;;4.13;;
61741;SDS011;47650;49.848;9.620;2023-10-13T14:26:12;10.48;;;4.18;;
61741;SDS011;47650;49.848;9.620;2023-10-13T14:28:38;11.23;;;4.88;;
61741;SDS011;47650;49.848;9.620;2023-10-13T14:31:15;10.43;;;4.03;;
61741;SDS011;47650;49.848;9.620;2023-10-13T14:33:41;8.75;;;4.15;;
61741;SDS011;47650;49.848;9.620;2023-10-13T14:36:06;13.77;;;3.93;;
61741;SDS011;47650;49.848;9.620;2023-10-13T14:38:35;11.77;;;3.75;;
61741;SDS011;47650;49.848;9.620;2023-10-13T14:41:02;7.85;;;3.95;;
61741;SDS011;47650;49.848;9.620;2023-10-13T14:43:27;8.77;;;4.55;;
61741;SDS011;47650;49.848;9.620;2023-10-13T14:45:53;8.48;;;4.28;;
61741;SDS011;47650;49.848;9.620;2023-10-13T14:48:19;6.53;;;3.08;;
61741;SDS011;47650;49.848;9.620;2023-10-13T14:50:44;8.68;;;4.57;;
61741;SDS011;47650;49.848;9.620;2023-10-13T14:53:10;9.18;;;4.20;;
61741;SDS011;47650;49.848;9.620;2023-10-13T14:55:36;11.55;;;4.20;;
61741;SDS011;47650;49.848;9.620;2023-10-13T14:58:04;10.80;;;4.50;;
61741;SDS011;47650;49.848;9.620;2023-10-13T15:00:32;10.52;;;4.80;;
61741;SDS011;47650;49.848;9.620;2023-10-13T15:02:58;10.05;;;4.00;;
61741;SDS011;47650;49.848;9.620;2023-10-13T15:05:31;9.70;;;3.72;;
61741;SDS011;47650;49.848;9.620;2023-10-13T15:08:00;12.88;;;4.38;;
61741;SDS011;47650;49.848;9.620;2023-10-13T15:10:29;11.48;;;4.30;;
61741;SDS011;47650;49.848;9.620;2023-10-13T15:12:55;6.75;;;3.88;;
61741;SDS011;47650;49.848;9.620;2023-10-13T15:15:20;12.57;;;4.30;;
61741;SDS011;47650;49.848;9.620;2023-10-13T15:17:45;9.13;;;4.10;;
61741;SDS011;47650;49.848;9.620;2023-10-13T15:20:11;14.05;;;4.47;;
61741;SDS011;47650;49.848;9.620;2023-10-13T15:22:46;11.90;;;4.60;;
61741;SDS011;47650;49.848;9.620;2023-10-13T15:25:14;9.25;;;4.85;;
61741;SDS011;47650;49.848;9.620;2023-10-13T15:28:04;7.35;;;3.70;;
61741;SDS011;47650;49.848;9.620;2023-10-13T15:30:34;7.50;;;3.92;;